createdAt,value
2023-03-24T00:01:24.022Z,54.50
2023-03-24T00:03:52.512Z,54.96
2023-03-24T00:06:22.640Z,56.38
2023-03-24T00:08:50.766Z,57.88
2023-03-24T00:11:19.496Z,56.16
2023-03-24T00:13:50.040Z,56.64
2023-03-24T00:16:19.942Z,56.58
2023-03-24T00:18:53.513Z,56.62
2023-03-24T00:21:25.232Z,55.59
2023-03-24T00:23:55.309Z,55.87
2023-03-24T00:26:26.638Z,55.93
2023-03-24T00:28:55.644Z,55.46
2023-03-24T00:31:24.710Z,54.59
2023-03-24T00:33:53.863Z,54.48
2023-03-24T00:36:24.464Z,54.48
2023-03-24T00:38:53.819Z,54.29
2023-03-24T00:41:24.891Z,54.30
2023-03-24T00:43:56.993Z,54.61
2023-03-24T00:46:29.583Z,54.00
2023-03-24T00:49:05.514Z,54.79
2023-03-24T00:51:42.105Z,53.52
2023-03-24T00:54:12.821Z,53.39
2023-03-24T00:56:41.426Z,53.36
2023-03-24T00:59:10.687Z,53.75
2023-03-24T01:01:41.019Z,52.44
2023-03-24T01:04:10.429Z,51.22
2023-03-24T01:06:39.886Z,50.99
2023-03-24T01:09:08.222Z,50.62
2023-03-24T01:11:39.914Z,52.13
2023-03-24T01:14:10.301Z,51.64
2023-03-24T01:16:39.140Z,51.50
2023-03-24T01:19:09.418Z,52.94
2023-03-24T01:21:39.372Z,52.11
2023-03-24T01:24:08.362Z,53.94
2023-03-24T01:26:36.477Z,53.93
2023-03-24T01:29:09.975Z,53.01
2023-03-24T01:31:49.799Z,54.10
2023-03-24T01:34:17.637Z,53.06
2023-03-24T01:36:45.328Z,55.30
2023-03-24T01:39:13.229Z,55.50
2023-03-24T01:41:42.538Z,54.52
2023-03-24T01:44:34.643Z,53.05
2023-03-24T01:47:06.775Z,53.81
2023-03-24T01:49:47.899Z,54.09
2023-03-24T01:52:26.460Z,54.54
2023-03-24T01:55:09.819Z,53.62
2023-03-24T01:57:43.043Z,54.12
2023-03-24T02:00:16.407Z,56.29
2023-03-24T02:03:18.463Z,57.09
2023-03-24T02:05:57.739Z,56.28
2023-03-24T02:08:58.287Z,56.28
2023-03-24T02:11:32.084Z,54.47
2023-03-24T02:14:05.018Z,54.75
2023-03-24T02:16:48.341Z,53.50
2023-03-24T02:20:05.875Z,54.14
2023-03-24T02:22:55.491Z,53.73
2023-03-24T02:25:38.970Z,53.65
2023-03-24T02:28:23.155Z,52.35
2023-03-24T02:31:12.560Z,56.01
2023-03-24T02:34:14.245Z,55.38
2023-03-24T02:37:09.012Z,54.70
2023-03-24T02:39:48.556Z,54.69
2023-03-24T02:42:55.184Z,54.55
2023-03-24T02:45:31.849Z,54.60
2023-03-24T02:48:26.266Z,54.48
2023-03-24T02:51:14.524Z,55.37
2023-03-24T02:54:18.376Z,55.31
2023-03-24T02:57:10.329Z,55.24
2023-03-24T03:00:19.976Z,54.47
2023-03-24T03:03:11.694Z,57.94
2023-03-24T03:05:50.067Z,57.63
2023-03-24T03:08:21.659Z,57.17
2023-03-24T03:10:53.403Z,56.41
2023-03-24T03:13:40.850Z,57.50
2023-03-24T03:16:28.746Z,57.47
2023-03-24T03:19:01.523Z,58.17
2023-03-24T03:21:36.198Z,59.21
2023-03-24T03:24:11.217Z,58.63
2023-03-24T03:26:39.807Z,58.08
2023-03-24T03:29:19.871Z,60.06
2023-03-24T03:32:07.624Z,60.26
2023-03-24T03:34:58.007Z,60.62
2023-03-24T03:37:52.964Z,60.25
2023-03-24T03:40:29.692Z,60.25
2023-03-24T03:43:05.906Z,57.71
2023-03-24T03:45:35.250Z,60.35
2023-03-24T03:48:03.349Z,60.01
2023-03-24T03:50:32.047Z,59.36
2023-03-24T03:53:07.409Z,60.78
2023-03-24T03:55:36.128Z,60.10
2023-03-24T03:58:06.069Z,61.35
2023-03-24T04:00:46.867Z,61.77
2023-03-24T04:03:58.991Z,59.60
2023-03-24T04:07:08.182Z,60.01
2023-03-24T04:09:54.969Z,60.06
2023-03-24T04:12:28.844Z,59.01
2023-03-24T04:15:51.535Z,59.09
2023-03-24T04:18:54.408Z,60.35
2023-03-24T04:21:58.451Z,60.05
2023-03-24T04:25:14.402Z,60.08
2023-03-24T04:27:48.224Z,57.72
2023-03-24T04:30:37.294Z,57.00
2023-03-24T04:33:39.003Z,55.56
2023-03-24T04:36:28.033Z,55.30
2023-03-24T04:39:25.526Z,55.27
2023-03-24T04:41:56.520Z,55.91
2023-03-24T04:44:30.115Z,55.34
2023-03-24T04:47:21.195Z,57.54
2023-03-24T04:50:04.822Z,58.00
2023-03-24T04:52:33.654Z,57.93
2023-03-24T04:55:24.545Z,58.93
2023-03-24T04:57:52.340Z,60.46
2023-03-24T05:00:20.551Z,60.47
2023-03-24T05:02:48.363Z,59.91
2023-03-24T05:05:23.896Z,60.79
2023-03-24T05:07:51.741Z,60.13
2023-03-24T05:10:21.806Z,60.80
2023-03-24T05:12:54.822Z,60.66
2023-03-24T05:15:22.764Z,61.33
2023-03-24T05:17:56.843Z,59.96
2023-03-24T05:20:27.292Z,61.00
2023-03-24T05:23:01.592Z,59.69
2023-03-24T05:25:29.483Z,61.70
2023-03-24T05:27:57.152Z,62.52
2023-03-24T05:30:26.784Z,61.18
2023-03-24T05:33:02.528Z,60.13
2023-03-24T05:35:30.766Z,58.89
2023-03-24T05:37:58.432Z,61.44
2023-03-24T05:40:26.559Z,63.36
2023-03-24T05:42:58.458Z,62.03
2023-03-24T05:45:30.752Z,61.01
2023-03-24T05:48:00.599Z,59.90
2023-03-24T05:50:43.500Z,59.02
2023-03-24T05:53:11.752Z,60.01
2023-03-24T05:55:58.670Z,58.01
2023-03-24T05:58:46.400Z,58.04
2023-03-24T06:01:14.132Z,58.27
2023-03-24T06:03:41.918Z,57.76
2023-03-24T06:06:16.680Z,58.25
2023-03-24T06:08:47.528Z,57.04
2023-03-24T06:11:16.783Z,57.50
2023-03-24T06:14:02.003Z,57.92
2023-03-24T06:16:41.046Z,57.86
2023-03-24T06:19:09.980Z,56.21
2023-03-24T06:21:52.244Z,57.31
2023-03-24T06:24:24.202Z,57.68
2023-03-24T06:26:53.230Z,56.83
2023-03-24T06:29:21.444Z,57.68
2023-03-24T06:31:49.385Z,58.20
2023-03-24T06:34:17.760Z,56.89
2023-03-24T06:36:54.319Z,58.21
2023-03-24T06:39:22.055Z,58.50
2023-03-24T06:41:49.828Z,58.19
2023-03-24T06:44:17.732Z,57.17
2023-03-24T06:46:47.282Z,57.86
2023-03-24T06:49:15.359Z,56.55
2023-03-24T06:51:43.065Z,55.62
2023-03-24T06:54:12.750Z,55.68
2023-03-24T06:56:40.518Z,54.43
2023-03-24T06:59:08.940Z,55.17
2023-03-24T07:01:38.135Z,54.36
2023-03-24T07:04:15.740Z,54.49
2023-03-24T07:07:10.841Z,55.05
2023-03-24T07:09:43.334Z,55.63
2023-03-24T07:12:13.401Z,56.62
2023-03-24T07:14:42.409Z,55.31
2023-03-24T07:17:10.136Z,55.92
2023-03-24T07:19:45.533Z,57.18
2023-03-24T07:22:37.069Z,57.00
2023-03-24T07:25:34.340Z,58.56
2023-03-24T07:28:14.625Z,59.12
2023-03-24T07:30:42.706Z,58.92
2023-03-24T07:33:12.558Z,59.54
2023-03-24T07:35:43.207Z,60.07
2023-03-24T07:38:12.067Z,59.58
2023-03-24T07:40:39.851Z,58.83
2023-03-24T07:43:07.799Z,59.65
2023-03-24T07:45:49.380Z,60.01
2023-03-24T07:48:17.502Z,60.68
2023-03-24T07:50:45.308Z,62.28
2023-03-24T07:53:33.803Z,61.75
2023-03-24T07:56:01.837Z,62.27
2023-03-24T07:58:29.919Z,61.84
2023-03-24T08:01:15.644Z,60.45
2023-03-24T08:03:49.151Z,60.71
2023-03-24T08:06:17.066Z,60.21
2023-03-24T08:08:50.531Z,56.04
2023-03-24T08:11:18.224Z,57.18
2023-03-24T08:13:45.962Z,57.29
2023-03-24T08:16:13.767Z,57.45
2023-03-24T08:18:41.512Z,57.47
2023-03-24T08:21:09.368Z,54.93
2023-03-24T08:23:37.147Z,56.11
2023-03-24T08:26:05.057Z,57.17
2023-03-24T08:28:33.071Z,57.00
2023-03-24T08:31:00.791Z,56.72
2023-03-24T08:33:28.641Z,55.87
2023-03-24T08:35:57.989Z,57.79
2023-03-24T08:38:30.673Z,57.11
2023-03-24T08:41:02.666Z,57.04
2023-03-24T08:43:31.262Z,58.15
2023-03-24T08:46:00.337Z,57.01
2023-03-24T08:48:30.469Z,58.69
2023-03-24T08:50:58.321Z,59.17
2023-03-24T08:53:26.009Z,58.96
2023-03-24T08:55:53.841Z,58.07
2023-03-24T08:58:23.019Z,58.22
2023-03-24T09:00:50.782Z,58.52
2023-03-24T09:03:22.446Z,59.27
2023-03-24T09:05:50.943Z,56.50
2023-03-24T09:08:19.541Z,54.56
2023-03-24T09:10:47.442Z,55.07
2023-03-24T09:13:16.507Z,54.89
2023-03-24T09:15:53.849Z,55.72
2023-03-24T09:18:22.116Z,59.53
2023-03-24T09:20:51.031Z,64.00
2023-03-24T09:23:20.287Z,62.73
2023-03-24T09:25:56.263Z,62.24
2023-03-24T09:28:24.732Z,62.57
2023-03-24T09:30:58.847Z,61.73
2023-03-24T09:33:29.576Z,60.25
2023-03-24T09:36:00.640Z,61.83
2023-03-24T09:38:29.631Z,63.15
2023-03-24T09:41:02.712Z,61.54
2023-03-24T09:43:43.153Z,60.46
2023-03-24T09:46:41.495Z,60.35
2023-03-24T09:49:16.662Z,57.73
2023-03-24T09:51:46.175Z,58.49
2023-03-24T09:54:28.146Z,56.99
2023-03-24T09:56:57.342Z,57.03
2023-03-24T09:59:35.061Z,56.50
2023-03-24T10:02:16.305Z,56.57
2023-03-24T10:04:44.401Z,56.75
2023-03-24T10:07:20.998Z,57.67
2023-03-24T10:09:59.500Z,58.42
2023-03-24T10:12:27.225Z,56.77
2023-03-24T10:15:37.715Z,55.10
2023-03-24T10:18:25.965Z,54.83
2023-03-24T10:21:15.387Z,55.65
2023-03-24T10:24:11.954Z,54.04
2023-03-24T10:27:07.086Z,53.88
2023-03-24T10:29:36.490Z,52.93
2023-03-24T10:32:25.753Z,53.04
2023-03-24T10:35:00.346Z,50.82
2023-03-24T10:37:31.275Z,50.90
2023-03-24T10:40:00.847Z,49.07
2023-03-24T10:42:34.351Z,47.35
2023-03-24T10:45:03.186Z,49.14
2023-03-24T10:47:33.160Z,49.89
2023-03-24T10:50:12.430Z,50.17
2023-03-24T10:52:48.645Z,49.90
2023-03-24T10:55:23.001Z,49.49
2023-03-24T10:57:55.851Z,50.14
2023-03-24T11:00:31.155Z,50.78
2023-03-24T11:03:12.411Z,51.83
2023-03-24T11:05:43.210Z,53.21
2023-03-24T11:08:17.432Z,52.03
2023-03-24T11:10:45.378Z,52.15
2023-03-24T11:13:29.020Z,51.78
2023-03-24T11:16:12.067Z,50.69
2023-03-24T11:19:22.834Z,51.93
2023-03-24T11:21:57.029Z,51.24
2023-03-24T11:24:26.098Z,52.97
2023-03-24T11:27:01.931Z,51.03
2023-03-24T11:29:34.196Z,51.10
2023-03-24T11:32:10.075Z,50.45
2023-03-24T11:34:44.088Z,50.11
2023-03-24T11:37:23.016Z,49.15
2023-03-24T11:40:29.340Z,49.74
2023-03-24T11:43:03.215Z,49.64
2023-03-24T11:45:43.268Z,49.51
2023-03-24T11:48:41.790Z,48.39
2023-03-24T11:51:12.566Z,46.67
2023-03-24T11:53:51.596Z,46.02
2023-03-24T11:56:56.599Z,46.09
2023-03-24T11:59:58.011Z,47.40
2023-03-24T12:03:09.663Z,48.06
2023-03-24T12:05:45.370Z,46.80
2023-03-24T12:08:19.337Z,46.56
2023-03-24T12:10:54.332Z,46.66
2023-03-24T12:13:41.866Z,46.56
2023-03-24T12:16:29.632Z,46.74
2023-03-24T12:19:28.914Z,44.73
2023-03-24T12:22:21.178Z,45.00
2023-03-24T12:25:04.690Z,45.80
2023-03-24T12:27:38.011Z,43.71
2023-03-24T12:30:25.802Z,45.29
2023-03-24T12:33:05.672Z,45.65
2023-03-24T12:36:06.039Z,46.83
2023-03-24T12:38:58.414Z,46.75
2023-03-24T12:42:03.315Z,47.44
2023-03-24T12:45:31.000Z,48.48
2023-03-24T12:48:24.293Z,47.14
2023-03-24T12:51:18.476Z,46.96
2023-03-24T12:54:13.716Z,46.41
2023-03-24T12:56:50.473Z,45.43
2023-03-24T12:59:36.079Z,47.06
2023-03-24T13:02:38.099Z,47.06
2023-03-24T13:05:15.623Z,46.57
2023-03-24T13:07:47.600Z,45.24
2023-03-24T13:10:29.825Z,44.47
2023-03-24T13:13:17.933Z,45.54
2023-03-24T13:16:05.169Z,46.07
2023-03-24T13:18:56.234Z,46.78
2023-03-24T13:21:26.548Z,46.08
2023-03-24T13:24:03.866Z,44.54
2023-03-24T13:26:38.679Z,44.18
2023-03-24T13:29:29.244Z,42.80
2023-03-24T13:32:24.989Z,43.75
2023-03-24T13:35:32.173Z,44.11
2023-03-24T13:38:20.720Z,44.29
2023-03-24T13:40:54.043Z,43.60
2023-03-24T13:43:29.703Z,42.70
2023-03-24T13:46:13.544Z,42.62
2023-03-24T13:48:51.978Z,42.43
2023-03-24T13:51:30.840Z,41.73
2023-03-24T13:54:30.642Z,41.21
2023-03-24T13:57:28.804Z,41.17
2023-03-24T14:00:15.946Z,39.49
2023-03-24T14:02:54.069Z,38.84
2023-03-24T14:05:22.596Z,38.96
2023-03-24T14:08:09.739Z,38.74
2023-03-24T14:10:38.737Z,37.57
2023-03-24T14:13:12.242Z,39.27
2023-03-24T14:15:50.189Z,39.15
2023-03-24T14:18:24.495Z,38.45
2023-03-24T14:21:04.159Z,38.40
2023-03-24T14:23:52.479Z,38.10
2023-03-24T14:26:20.020Z,36.67
2023-03-24T14:28:55.786Z,37.21
2023-03-24T14:31:33.135Z,36.98
2023-03-24T14:34:15.440Z,37.57
2023-03-24T14:36:45.419Z,37.41
2023-03-24T14:39:33.159Z,37.35
2023-03-24T14:42:00.997Z,37.91
2023-03-24T14:44:51.104Z,36.24
2023-03-24T14:47:27.659Z,36.48
2023-03-24T14:49:58.919Z,35.89
2023-03-24T14:52:39.078Z,36.86
2023-03-24T14:55:12.962Z,36.27
2023-03-24T14:57:43.834Z,35.30
2023-03-24T15:00:25.911Z,36.99
2023-03-24T15:03:10.893Z,37.57
2023-03-24T15:05:38.922Z,38.18
2023-03-24T15:08:23.507Z,36.75
2023-03-24T15:11:08.693Z,36.22
2023-03-24T15:13:53.597Z,36.25
2023-03-24T15:16:26.133Z,34.25
2023-03-24T15:19:01.507Z,34.67
2023-03-24T15:21:41.125Z,35.71
2023-03-24T15:24:21.148Z,35.22
2023-03-24T15:27:22.461Z,35.90
2023-03-24T15:29:59.676Z,37.01
2023-03-24T15:32:32.090Z,38.45
2023-03-24T15:35:06.015Z,38.72
2023-03-24T15:37:41.479Z,39.56
2023-03-24T15:40:33.772Z,38.67
2023-03-24T15:43:06.865Z,39.25
2023-03-24T15:45:43.471Z,39.30
2023-03-24T15:48:19.259Z,39.36
2023-03-24T15:51:09.799Z,39.79
2023-03-24T15:53:44.274Z,39.62
2023-03-24T15:56:12.248Z,39.82
2023-03-24T15:59:06.086Z,39.86
2023-03-24T16:01:36.468Z,39.12
2023-03-24T16:04:15.882Z,38.07
2023-03-24T16:06:53.802Z,38.23
2023-03-24T16:09:27.063Z,38.42
2023-03-24T16:11:55.119Z,36.21
2023-03-24T16:14:28.039Z,35.04
2023-03-24T16:17:00.610Z,34.77
2023-03-24T16:19:28.735Z,34.69
2023-03-24T16:21:56.989Z,34.01
2023-03-24T16:24:24.875Z,34.95
2023-03-24T16:26:52.688Z,35.45
2023-03-24T16:29:23.610Z,36.52
2023-03-24T16:31:55.703Z,38.22
2023-03-24T16:34:24.552Z,39.01
2023-03-24T16:36:54.323Z,39.03
2023-03-24T16:39:28.740Z,39.12
2023-03-24T16:41:57.771Z,38.69
2023-03-24T16:44:26.288Z,37.91
2023-03-24T16:46:54.871Z,36.57
2023-03-24T16:49:24.005Z,36.81
2023-03-24T16:51:52.846Z,35.65
2023-03-24T16:54:21.101Z,35.12
2023-03-24T16:56:49.005Z,37.26
2023-03-24T16:59:17.037Z,36.61
2023-03-24T17:01:46.593Z,35.78
2023-03-24T17:04:17.197Z,34.61
2023-03-24T17:06:54.218Z,35.46
2023-03-24T17:09:22.539Z,35.49
2023-03-24T17:11:57.431Z,35.47
2023-03-24T17:14:25.624Z,34.88
2023-03-24T17:16:53.677Z,35.15
2023-03-24T17:19:23.497Z,35.03
2023-03-24T17:22:04.251Z,35.59
2023-03-24T17:24:36.046Z,35.09
2023-03-24T17:27:10.302Z,34.66
2023-03-24T17:29:38.014Z,34.94
2023-03-24T17:32:05.969Z,35.04
2023-03-24T17:34:33.881Z,35.65
2023-03-24T17:37:01.577Z,36.09
2023-03-24T17:39:29.343Z,37.28
2023-03-24T17:42:01.131Z,36.78
2023-03-24T17:44:29.131Z,36.03
2023-03-24T17:46:56.839Z,35.61
2023-03-24T17:49:24.517Z,35.53
2023-03-24T17:51:52.335Z,36.05
2023-03-24T17:54:21.147Z,35.23
2023-03-24T17:56:48.899Z,35.51
2023-03-24T17:59:17.038Z,36.67
2023-03-24T18:01:44.652Z,35.91
2023-03-24T18:04:12.490Z,35.31
2023-03-24T18:06:42.128Z,35.40
2023-03-24T18:09:10.487Z,36.50
2023-03-24T18:11:38.554Z,38.65
2023-03-24T18:14:08.944Z,38.66
2023-03-24T18:16:36.971Z,39.23
2023-03-24T18:19:05.155Z,39.39
2023-03-24T18:21:33.995Z,39.17
2023-03-24T18:24:02.535Z,39.57
2023-03-24T18:26:30.784Z,40.17
2023-03-24T18:29:35.636Z,42.48
2023-03-24T18:32:06.213Z,49.41
2023-03-24T18:34:35.889Z,53.55
2023-03-24T18:37:03.538Z,52.02
2023-03-24T18:39:31.262Z,53.19
2023-03-24T18:41:58.866Z,50.69
2023-03-24T18:44:26.510Z,49.45
2023-03-24T18:46:55.450Z,52.19
2023-03-24T18:49:30.068Z,50.34
2023-03-24T18:52:00.627Z,46.29
2023-03-24T18:54:28.448Z,42.57
2023-03-24T18:56:56.721Z,43.07
2023-03-24T18:59:25.784Z,43.99
2023-03-24T19:01:55.559Z,44.61
2023-03-24T19:04:23.188Z,44.13
2023-03-24T19:06:50.888Z,44.83
2023-03-24T19:09:20.996Z,45.38
2023-03-24T19:11:51.309Z,47.12
2023-03-24T19:14:19.655Z,49.94
2023-03-24T19:16:48.620Z,51.72
2023-03-24T19:19:18.409Z,57.78
2023-03-24T19:21:46.131Z,59.05
2023-03-24T19:24:18.306Z,61.35
2023-03-24T19:26:47.214Z,62.49
2023-03-24T19:29:15.002Z,63.58
2023-03-24T19:31:42.848Z,64.12
2023-03-24T19:34:10.686Z,63.47
2023-03-24T19:36:41.736Z,64.63
2023-03-24T19:39:15.539Z,63.04
2023-03-24T19:41:45.078Z,64.39
2023-03-24T19:44:12.875Z,63.84
2023-03-24T19:46:40.886Z,63.83
2023-03-24T19:49:09.707Z,61.73
2023-03-24T19:51:40.849Z,58.82
2023-03-24T19:54:08.654Z,58.46
2023-03-24T19:56:36.511Z,60.02
2023-03-24T19:59:04.190Z,61.02
2023-03-24T20:01:35.404Z,61.27
2023-03-24T20:04:05.114Z,59.13
2023-03-24T20:06:32.972Z,58.29
2023-03-24T20:09:01.020Z,57.70
2023-03-24T20:11:29.077Z,59.05
2023-03-24T20:13:57.725Z,58.69
2023-03-24T20:16:25.989Z,57.91
2023-03-24T20:18:53.946Z,54.73
2023-03-24T20:21:22.831Z,56.10
2023-03-24T20:23:52.018Z,55.29
2023-03-24T20:26:20.850Z,54.68
2023-03-24T20:28:48.607Z,55.94
2023-03-24T20:31:19.247Z,57.11
2023-03-24T20:33:47.026Z,56.45
2023-03-24T20:36:14.864Z,56.11
2023-03-24T20:38:42.806Z,55.77
2023-03-24T20:41:11.237Z,54.97
2023-03-24T20:43:39.189Z,56.48
2023-03-24T20:46:09.468Z,58.30
2023-03-24T20:48:37.441Z,55.68
2023-03-24T20:51:05.807Z,54.42
2023-03-24T20:53:35.682Z,52.47
2023-03-24T20:56:08.047Z,50.53
2023-03-24T20:58:37.894Z,51.04
2023-03-24T21:01:08.175Z,51.64
2023-03-24T21:03:36.636Z,52.04
2023-03-24T21:06:06.612Z,51.07
2023-03-24T21:08:34.509Z,51.56
2023-03-24T21:11:02.182Z,49.83
2023-03-24T21:13:37.425Z,49.15
2023-03-24T21:16:10.044Z,49.32
2023-03-24T21:18:39.189Z,48.54
2023-03-24T21:21:12.462Z,48.12
2023-03-24T21:23:42.764Z,48.05
2023-03-24T21:26:16.951Z,47.42
2023-03-24T21:28:45.492Z,48.17
2023-03-24T21:31:22.902Z,47.25
2023-03-24T21:33:52.389Z,48.30
2023-03-24T21:36:21.751Z,48.14
2023-03-24T21:38:51.646Z,47.84
2023-03-24T21:41:21.121Z,48.27
2023-03-24T21:43:53.962Z,48.79
2023-03-24T21:46:26.483Z,48.53
2023-03-24T21:49:00.186Z,48.80
2023-03-24T21:51:34.463Z,49.07
2023-03-24T21:54:06.507Z,50.19
2023-03-24T21:56:35.867Z,49.43
2023-03-24T21:59:04.025Z,51.33
2023-03-24T22:01:34.041Z,51.91
2023-03-24T22:04:03.430Z,50.84
2023-03-24T22:06:37.386Z,50.95
2023-03-24T22:09:07.046Z,50.99
2023-03-24T22:11:36.189Z,49.32
2023-03-24T22:14:07.104Z,48.79
2023-03-24T22:16:34.811Z,48.98
2023-03-24T22:19:03.000Z,49.29
2023-03-24T22:21:32.272Z,49.27
2023-03-24T22:23:59.954Z,49.06
2023-03-24T22:26:27.678Z,48.74
2023-03-24T22:28:56.238Z,48.51
2023-03-24T22:31:24.589Z,48.70
2023-03-24T22:33:52.294Z,48.60
2023-03-24T22:36:19.934Z,48.59
2023-03-24T22:38:47.595Z,49.39
2023-03-24T22:41:16.248Z,49.76
2023-03-24T22:43:44.687Z,50.50
2023-03-24T22:46:13.547Z,50.32
2023-03-24T22:48:41.543Z,50.00
2023-03-24T22:51:09.507Z,50.61
2023-03-24T22:53:40.383Z,49.69
2023-03-24T22:56:09.101Z,49.25
2023-03-24T22:58:37.161Z,49.06
2023-03-24T23:01:06.599Z,49.93
2023-03-24T23:03:35.399Z,50.40
2023-03-24T23:06:04.096Z,52.33
2023-03-24T23:08:33.849Z,52.70
2023-03-24T23:11:01.834Z,54.19
2023-03-24T23:13:30.903Z,53.49
2023-03-24T23:15:58.725Z,53.81
2023-03-24T23:18:26.441Z,53.25
2023-03-24T23:21:10.497Z,53.74
2023-03-24T23:23:41.151Z,52.85
2023-03-24T23:26:25.601Z,52.94
2023-03-24T23:28:55.028Z,53.06
2023-03-24T23:31:28.043Z,53.62
2023-03-24T23:33:57.752Z,54.44
2023-03-24T23:36:28.383Z,54.09
2023-03-24T23:38:56.564Z,54.41
2023-03-24T23:41:24.671Z,53.06
2023-03-24T23:43:54.306Z,52.55
2023-03-24T23:46:23.989Z,52.17
2023-03-24T23:48:51.850Z,51.63
2023-03-24T23:51:19.463Z,53.81
2023-03-24T23:53:47.368Z,53.25
2023-03-24T23:56:15.337Z,53.40
2023-03-24T23:58:43.422Z,53.06
